Time;durP1;ratioP1;P1;durP2;ratioP2;P2;SDS_P1;SDS_P2;PMS_P1;PMS_P2;Temp;Humidity;BMP_temperature;BMP_pressure;BME280_temperature;BME280_humidity;BME280_pressure;Samples;Min_cycle;Max_cycle;Signal;HPM_P1;HPM_P2
2021/12/23 00:01:05;;;;;;;200.15;91.57;;;;;;;;;;5074144;28;20040;-64
2021/12/23 00:03:31;;;;;;;192.55;90.10;;;;;;;;;;5075559;28;20025;-64
2021/12/23 00:05:56;;;;;;;194.05;91.30;;;;;;;;;;5075199;28;20037;-65
2021/12/23 00:08:22;;;;;;;194.88;92.50;;;;;;;;;;5075232;28;20029;-65
2021/12/23 00:10:47;;;;;;;182.57;88.93;;;;;;;;;;5073933;28;20106;-64
2021/12/23 00:13:13;;;;;;;154.48;74.97;;;;;;;;;;5073755;28;20025;-65
2021/12/23 00:16:00;;;;;;;211.73;115.18;;;;;;;;;;5074643;28;20510;-64
2021/12/23 00:23:50;;;;;;;81.88;42.90;;;;;;;;;;5073853;28;20037;-64
2021/12/23 00:26:15;;;;;;;80.95;42.42;;;;;;;;;;5074621;28;20031;-64
2021/12/23 00:28:41;;;;;;;99.30;48.70;;;;;;;;;;5073815;28;20073;-64
2021/12/23 00:31:07;;;;;;;122.07;62.15;;;;;;;;;;5074348;28;20072;-64
2021/12/23 00:33:34;;;;;;;115.97;59.80;;;;;;;;;;5074790;28;20072;-64
2021/12/23 00:35:59;;;;;;;138.98;68.63;;;;;;;;;;5073369;28;20041;-64
2021/12/23 00:38:32;;;;;;;140.85;67.13;;;;;;;;;;5074869;28;20036;-64
2021/12/23 00:41:00;;;;;;;144.82;69.63;;;;;;;;;;5074745;28;20407;-64
2021/12/23 00:43:26;;;;;;;112.05;58.22;;;;;;;;;;5073138;28;20412;-63
2021/12/23 00:45:51;;;;;;;128.93;65.97;;;;;;;;;;5073185;28;20033;-63
2021/12/23 00:48:17;;;;;;;149.20;74.68;;;;;;;;;;5073295;28;20466;-65
2021/12/23 00:50:43;;;;;;;144.52;71.93;;;;;;;;;;5074366;28;20068;-64
2021/12/23 00:53:10;;;;;;;147.75;72.10;;;;;;;;;;5074496;28;20043;-65
2021/12/23 00:55:36;;;;;;;141.43;71.10;;;;;;;;;;5074143;28;20029;-64
2021/12/23 00:58:03;;;;;;;150.68;72.05;;;;;;;;;;5074408;28;20028;-64
2021/12/23 01:00:29;;;;;;;142.00;70.00;;;;;;;;;;5074263;28;20029;-64
2021/12/23 01:02:55;;;;;;;147.52;71.65;;;;;;;;;;5074205;28;20036;-64
2021/12/23 01:05:21;;;;;;;139.07;68.45;;;;;;;;;;5073043;28;20041;-64
2021/12/23 01:07:47;;;;;;;129.88;66.38;;;;;;;;;;5074085;28;20437;-64
2021/12/23 01:10:13;;;;;;;128.25;64.80;;;;;;;;;;5072839;28;20040;-64
2021/12/23 01:12:46;;;;;;;119.32;58.65;;;;;;;;;;5074186;28;20029;-64
2021/12/23 01:15:27;;;;;;;120.80;60.72;;;;;;;;;;5074139;28;20037;-64
2021/12/23 01:18:00;;;;;;;117.35;57.70;;;;;;;;;;5074081;28;20045;-64
2021/12/23 01:20:29;;;;;;;130.80;62.25;;;;;;;;;;5072769;28;20380;-63
2021/12/23 01:23:00;;;;;;;127.63;62.45;;;;;;;;;;5073767;28;20017;-63
2021/12/23 01:25:26;;;;;;;119.43;62.22;;;;;;;;;;5073632;28;20548;-63
2021/12/23 01:27:52;;;;;;;121.25;60.65;;;;;;;;;;5071772;28;20025;-66
2021/12/23 01:30:17;;;;;;;127.65;65.25;;;;;;;;;;5073330;28;20033;-66
2021/12/23 01:32:44;;;;;;;127.03;62.30;;;;;;;;;;5073675;28;20495;-65
2021/12/23 01:35:10;;;;;;;113.63;56.85;;;;;;;;;;5072304;28;20040;-65
2021/12/23 01:37:35;;;;;;;128.90;62.17;;;;;;;;;;5073628;28;20471;-64
2021/12/23 01:40:00;;;;;;;126.75;64.05;;;;;;;;;;5072303;28;20045;-65
2021/12/23 01:42:26;;;;;;;128.43;64.00;;;;;;;;;;5073629;28;20024;-65
2021/12/23 01:44:51;;;;;;;118.28;62.65;;;;;;;;;;5071676;28;20558;-66
2021/12/23 01:47:17;;;;;;;130.75;64.00;;;;;;;;;;5072412;28;20078;-65
2021/12/23 01:49:42;;;;;;;131.32;65.10;;;;;;;;;;5072582;28;20044;-65
2021/12/23 01:52:08;;;;;;;118.82;58.35;;;;;;;;;;5073485;28;20032;-63
2021/12/23 01:54:34;;;;;;;102.20;52.53;;;;;;;;;;5073595;28;20394;-64
2021/12/23 01:56:59;;;;;;;94.63;48.33;;;;;;;;;;5072109;28;20532;-65
2021/12/23 01:59:25;;;;;;;83.88;42.97;;;;;;;;;;5071991;28;20116;-63
2021/12/23 02:01:51;;;;;;;74.13;39.25;;;;;;;;;;5073569;28;20098;-62
2021/12/23 02:04:16;;;;;;;78.57;40.00;;;;;;;;;;5072364;28;20044;-62
2021/12/23 02:06:41;;;;;;;73.03;39.00;;;;;;;;;;5073251;28;20034;-64
2021/12/23 02:09:07;;;;;;;72.05;37.05;;;;;;;;;;5073275;28;20036;-65
2021/12/23 02:11:32;;;;;;;63.35;32.83;;;;;;;;;;5073020;28;20029;-63
2021/12/23 02:13:58;;;;;;;55.40;30.50;;;;;;;;;;5072974;28;20028;-63
2021/12/23 02:16:23;;;;;;;60.30;30.85;;;;;;;;;;5072969;28;20025;-63
2021/12/23 02:18:49;;;;;;;61.55;32.22;;;;;;;;;;5071849;28;20032;-64
2021/12/23 02:21:14;;;;;;;56.63;32.13;;;;;;;;;;5071685;28;20025;-65
2021/12/23 02:23:40;;;;;;;57.50;30.95;;;;;;;;;;5073163;28;20502;-72
2021/12/23 02:26:06;;;;;;;59.28;30.67;;;;;;;;;;5073159;28;20107;-72
2021/12/23 02:28:33;;;;;;;60.92;34.53;;;;;;;;;;5071948;28;20086;-71
2021/12/23 02:30:58;;;;;;;65.75;34.25;;;;;;;;;;5072278;28;20143;-66
2021/12/23 02:33:25;;;;;;;70.93;34.80;;;;;;;;;;5072978;28;20549;-65
2021/12/23 02:35:52;;;;;;;60.95;31.77;;;;;;;;;;5054923;28;20097;-65
2021/12/23 02:38:38;;;;;;;60.80;31.02;;;;;;;;;;5074128;28;20051;-65
2021/12/23 02:41:03;;;;;;;64.40;32.97;;;;;;;;;;5075504;28;20032;-65
2021/12/23 02:43:29;;;;;;;80.97;36.17;;;;;;;;;;5076869;28;20564;-64
2021/12/23 02:45:56;;;;;;;73.50;34.80;;;;;;;;;;5075412;28;20435;-64
2021/12/23 02:48:29;;;;;;;66.93;32.30;;;;;;;;;;5075666;28;20477;-64
2021/12/23 02:50:55;;;;;;;55.22;27.35;;;;;;;;;;5077106;28;20040;-64
2021/12/23 02:53:22;;;;;;;54.45;28.45;;;;;;;;;;5076830;28;20040;-64
2021/12/23 02:55:47;;;;;;;58.13;30.17;;;;;;;;;;5076584;28;20036;-65
2021/12/23 02:58:13;;;;;;;50.97;27.00;;;;;;;;;;5076584;28;20159;-65
2021/12/23 03:00:39;;;;;;;84.78;43.03;;;;;;;;;;5076340;28;20043;-65
2021/12/23 03:03:05;;;;;;;86.50;42.38;;;;;;;;;;5076535;28;20033;-64
2021/12/23 03:05:30;;;;;;;75.72;37.65;;;;;;;;;;5076283;28;20090;-65
2021/12/23 03:07:57;;;;;;;67.55;34.63;;;;;;;;;;5076400;28;20028;-63
2021/12/23 03:10:23;;;;;;;66.10;33.88;;;;;;;;;;5076361;28;20067;-63
2021/12/23 03:12:49;;;;;;;63.80;33.30;;;;;;;;;;5075240;28;20064;-63
2021/12/23 03:15:16;;;;;;;87.43;44.00;;;;;;;;;;5076495;28;20037;-64
2021/12/23 03:17:41;;;;;;;56.92;30.33;;;;;;;;;;5076284;28;20027;-64
2021/12/23 03:20:07;;;;;;;51.78;26.45;;;;;;;;;;5076274;28;20032;-64
2021/12/23 03:22:32;;;;;;;47.75;25.70;;;;;;;;;;5075185;28;20428;-62
2021/12/23 03:24:58;;;;;;;45.20;24.98;;;;;;;;;;5076380;28;20033;-62
2021/12/23 03:27:24;;;;;;;48.28;26.08;;;;;;;;;;5076283;28;20024;-65
2021/12/23 03:29:50;;;;;;;43.70;23.98;;;;;;;;;;5075937;28;20047;-65
2021/12/23 03:32:15;;;;;;;44.22;24.33;;;;;;;;;;5076301;28;20142;-64
2021/12/23 03:34:40;;;;;;;50.00;25.90;;;;;;;;;;5075667;28;20029;-64
2021/12/23 03:37:06;;;;;;;51.50;28.70;;;;;;;;;;5074643;28;20055;-64
2021/12/23 03:39:31;;;;;;;54.67;28.90;;;;;;;;;;5075643;28;20505;-63
2021/12/23 03:41:57;;;;;;;56.55;29.67;;;;;;;;;;5075665;28;20498;-63
2021/12/23 03:44:23;;;;;;;51.58;28.70;;;;;;;;;;5075654;28;20487;-63
2021/12/23 03:46:49;;;;;;;57.65;28.77;;;;;;;;;;5058107;28;20398;-63
2021/12/23 03:49:14;;;;;;;57.63;29.55;;;;;;;;;;5075171;28;20036;-63
2021/12/23 03:51:39;;;;;;;59.65;31.60;;;;;;;;;;5075193;28;20449;-63
2021/12/23 03:54:05;;;;;;;79.60;43.35;;;;;;;;;;5075456;28;20036;-63
2021/12/23 03:56:31;;;;;;;99.90;49.67;;;;;;;;;;5075366;28;20086;-63
2021/12/23 03:58:57;;;;;;;105.68;53.55;;;;;;;;;;5075373;28;20086;-63
2021/12/23 04:01:23;;;;;;;103.47;52.38;;;;;;;;;;5075349;28;20032;-64
2021/12/23 04:03:50;;;;;;;103.78;55.28;;;;;;;;;;5075821;28;20033;-64
2021/12/23 04:06:15;;;;;;;132.07;68.20;;;;;;;;;;5075244;28;20390;-65
2021/12/23 04:08:41;;;;;;;147.73;74.75;;;;;;;;;;5074307;28;20040;-65
2021/12/23 04:11:06;;;;;;;189.07;91.60;;;;;;;;;;5075112;28;20363;-64
2021/12/23 04:13:31;;;;;;;106.25;53.03;;;;;;;;;;5075123;28;20067;-64
2021/12/23 04:15:58;;;;;;;117.15;58.53;;;;;;;;;;5075310;28;20063;-64
2021/12/23 04:18:23;;;;;;;103.40;50.20;;;;;;;;;;5074954;28;20063;-64
2021/12/23 04:20:54;;;;;;;94.40;46.40;;;;;;;;;;5075304;28;20036;-63
2021/12/23 04:23:30;;;;;;;72.00;36.83;;;;;;;;;;5073772;28;20169;-64
2021/12/23 04:25:56;;;;;;;72.13;36.78;;;;;;;;;;5074981;28;20101;-64
2021/12/23 04:28:22;;;;;;;74.55;36.45;;;;;;;;;;5075137;28;20526;-64
2021/12/23 04:30:48;;;;;;;46.90;26.38;;;;;;;;;;5074045;28;20040;-63
2021/12/23 04:33:14;;;;;;;47.85;24.95;;;;;;;;;;5073848;28;20040;-63
2021/12/23 04:35:39;;;;;;;57.05;29.65;;;;;;;;;;5074839;28;20044;-63
2021/12/23 04:38:05;;;;;;;57.03;29.60;;;;;;;;;;5073848;28;20024;-63
2021/12/23 04:40:31;;;;;;;87.30;43.90;;;;;;;;;;5074547;28;20482;-63
2021/12/23 04:42:57;;;;;;;82.07;43.88;;;;;;;;;;5073609;28;20032;-64
2021/12/23 04:45:23;;;;;;;69.65;39.15;;;;;;;;;;5074530;28;20702;-63
2021/12/23 04:47:48;;;;;;;102.95;53.88;;;;;;;;;;5074425;28;20111;-72
2021/12/23 04:50:14;;;;;;;107.72;55.25;;;;;;;;;;5073076;28;20467;-72
2021/12/23 04:52:40;;;;;;;84.65;44.13;;;;;;;;;;5073297;28;20041;-62
2021/12/23 04:55:06;;;;;;;118.95;65.07;;;;;;;;;;5074208;28;20047;-72
2021/12/23 04:57:32;;;;;;;120.55;67.60;;;;;;;;;;5072913;28;20021;-72
2021/12/23 04:59:57;;;;;;;269.45;123.28;;;;;;;;;;5074291;28;20029;-72
2021/12/23 05:02:23;;;;;;;221.45;106.72;;;;;;;;;;5073279;28;20066;-72
2021/12/23 05:04:52;;;;;;;224.70;106.22;;;;;;;;;;5073047;28;20059;-72
2021/12/23 05:07:18;;;;;;;223.20;101.90;;;;;;;;;;5074339;28;20033;-72
2021/12/23 05:09:44;;;;;;;167.60;79.70;;;;;;;;;;5074090;28;20095;-64
2021/12/23 05:12:09;;;;;;;142.70;68.75;;;;;;;;;;5072901;28;20403;-64
2021/12/23 05:14:35;;;;;;;133.25;66.60;;;;;;;;;;5074060;28;20119;-64
2021/12/23 05:17:00;;;;;;;122.28;61.28;;;;;;;;;;5064351;28;20394;-65
2021/12/23 05:19:27;;;;;;;116.43;56.65;;;;;;;;;;5069214;28;20036;-65
2021/12/23 05:21:52;;;;;;;118.95;59.65;;;;;;;;;;5070210;28;20051;-65
2021/12/23 05:24:18;;;;;;;118.80;62.95;;;;;;;;;;5070643;28;20028;-66
2021/12/23 05:26:43;;;;;;;123.75;64.57;;;;;;;;;;5070046;28;20036;-65
2021/12/23 05:29:11;;;;;;;148.70;74.65;;;;;;;;;;5070289;28;20510;-65
2021/12/23 05:31:36;;;;;;;235.15;108.97;;;;;;;;;;5069826;28;20101;-66
2021/12/23 05:34:04;;;;;;;152.40;74.75;;;;;;;;;;5068847;28;20719;-65
2021/12/23 05:36:29;;;;;;;106.65;59.05;;;;;;;;;;5068674;28;20048;-65
2021/12/23 05:38:55;;;;;;;96.30;57.78;;;;;;;;;;5069959;28;20068;-65
2021/12/23 05:41:22;;;;;;;99.63;58.38;;;;;;;;;;5070097;28;20032;-65
2021/12/23 05:43:48;;;;;;;95.22;57.97;;;;;;;;;;5068474;28;20036;-66
2021/12/23 05:46:13;;;;;;;92.68;56.28;;;;;;;;;;5069923;28;20086;-66
2021/12/23 05:48:39;;;;;;;156.63;93.10;;;;;;;;;;5068815;28;20102;-65
2021/12/23 05:51:04;;;;;;;119.07;72.22;;;;;;;;;;5069790;28;20047;-66
2021/12/23 05:53:30;;;;;;;115.70;69.15;;;;;;;;;;5069932;28;20048;-65
2021/12/23 05:55:56;;;;;;;117.90;69.97;;;;;;;;;;5069797;28;20040;-66
2021/12/23 05:58:22;;;;;;;137.95;77.75;;;;;;;;;;5070101;28;20127;-65
2021/12/23 06:00:47;;;;;;;148.55;83.70;;;;;;;;;;5068136;28;20107;-72
2021/12/23 06:03:14;;;;;;;175.60;95.20;;;;;;;;;;5069562;28;20032;-73
2021/12/23 06:05:40;;;;;;;192.85;106.22;;;;;;;;;;5051436;28;20043;-72
2021/12/23 06:08:06;;;;;;;222.15;114.65;;;;;;;;;;5069960;28;20078;-72
2021/12/23 06:10:31;;;;;;;167.00;88.10;;;;;;;;;;5068793;28;20385;-72
2021/12/23 06:12:56;;;;;;;148.73;81.22;;;;;;;;;;5070629;28;20036;-72
2021/12/23 06:15:23;;;;;;;133.52;70.80;;;;;;;;;;5072299;28;20056;-72
2021/12/23 06:17:48;;;;;;;129.57;66.93;;;;;;;;;;5073215;28;20074;-73
2021/12/23 06:20:14;;;;;;;125.35;65.03;;;;;;;;;;5074911;28;20097;-73
2021/12/23 06:22:40;;;;;;;116.63;64.03;;;;;;;;;;5073683;28;20028;-73
2021/12/23 06:25:07;;;;;;;114.50;62.20;;;;;;;;;;5073930;28;20390;-73
2021/12/23 06:27:34;;;;;;;112.47;61.08;;;;;;;;;;5074869;28;20131;-73
2021/12/23 06:29:59;;;;;;;112.70;60.92;;;;;;;;;;5074655;28;20043;-73
2021/12/23 06:32:25;;;;;;;127.38;70.07;;;;;;;;;;5074844;28;20044;-73
2021/12/23 06:34:50;;;;;;;138.63;76.20;;;;;;;;;;5073213;28;20098;-73
2021/12/23 06:37:17;;;;;;;181.23;94.65;;;;;;;;;;5072837;28;20044;-74
2021/12/23 06:39:46;;;;;;;140.30;78.50;;;;;;;;;;5074968;28;20486;-74
2021/12/23 06:42:13;;;;;;;89.72;50.70;;;;;;;;;;5076172;28;20075;-73
2021/12/23 06:44:38;;;;;;;118.82;66.82;;;;;;;;;;5077039;28;20120;-73
2021/12/23 06:47:04;;;;;;;117.55;62.97;;;;;;;;;;5075554;28;20497;-73
2021/12/23 06:49:31;;;;;;;195.68;98.70;;;;;;;;;;5076841;28;20032;-74
2021/12/23 06:51:57;;;;;;;211.18;106.00;;;;;;;;;;5076974;28;20375;-73
2021/12/23 06:54:23;;;;;;;240.95;114.82;;;;;;;;;;5075429;28;20028;-73
2021/12/23 06:56:50;;;;;;;436.77;209.32;;;;;;;;;;5076569;28;20093;-73
2021/12/23 06:59:17;;;;;;;406.35;211.23;;;;;;;;;;5076429;28;20024;-73
2021/12/23 07:01:47;;;;;;;398.30;200.02;;;;;;;;;;5076336;28;20052;-73
2021/12/23 07:04:15;;;;;;;384.05;191.65;;;;;;;;;;5076356;28;20016;-74
2021/12/23 07:06:47;;;;;;;389.23;191.23;;;;;;;;;;5076409;28;20043;-75
2021/12/23 07:09:15;;;;;;;348.30;161.80;;;;;;;;;;5076500;28;20040;-75
2021/12/23 07:11:40;;;;;;;287.48;139.02;;;;;;;;;;5075690;28;20036;-74
2021/12/23 07:14:08;;;;;;;298.63;142.00;;;;;;;;;;5075126;28;20485;-74
2021/12/23 07:16:38;;;;;;;295.13;143.50;;;;;;;;;;5075932;28;20032;-74
2021/12/23 07:19:04;;;;;;;231.10;109.05;;;;;;;;;;5076106;28;20041;-73
2021/12/23 07:21:30;;;;;;;260.52;128.43;;;;;;;;;;5074810;28;20031;-74
2021/12/23 07:23:55;;;;;;;237.32;119.82;;;;;;;;;;5074330;28;20399;-74
2021/12/23 07:26:20;;;;;;;271.05;134.50;;;;;;;;;;5075332;28;20033;-74
2021/12/23 07:28:48;;;;;;;266.70;132.18;;;;;;;;;;5075769;28;20040;-74
2021/12/23 07:31:13;;;;;;;247.80;127.20;;;;;;;;;;5074010;28;20466;-74
2021/12/23 07:33:39;;;;;;;257.67;128.32;;;;;;;;;;5075534;28;20098;-74
2021/12/23 07:36:05;;;;;;;234.98;122.28;;;;;;;;;;5074367;28;20103;-73
2021/12/23 07:38:31;;;;;;;223.98;118.57;;;;;;;;;;5075784;28;20055;-73
2021/12/23 07:40:56;;;;;;;211.93;113.65;;;;;;;;;;5074771;28;20459;-73
2021/12/23 07:46:00;;;;;;;228.68;121.95;;;;;;;;;;5075646;28;20041;-73
2021/12/23 07:48:25;;;;;;;223.73;116.60;;;;;;;;;;5075472;28;20541;-74
2021/12/23 07:50:52;;;;;;;208.85;111.85;;;;;;;;;;5074525;28;20032;-73
2021/12/23 07:53:18;;;;;;;198.35;109.30;;;;;;;;;;5074800;28;20109;-73
2021/12/23 07:55:44;;;;;;;200.38;112.22;;;;;;;;;;5075606;28;20058;-73
2021/12/23 07:58:11;;;;;;;229.95;120.18;;;;;;;;;;5075404;28;20063;-73
2021/12/23 08:00:37;;;;;;;240.18;122.28;;;;;;;;;;5075750;28;20115;-74
2021/12/23 08:03:02;;;;;;;231.30;111.80;;;;;;;;;;5075633;28;20454;-74
2021/12/23 08:05:30;;;;;;;224.23;117.47;;;;;;;;;;5074127;28;20398;-73
2021/12/23 08:07:59;;;;;;;224.30;119.85;;;;;;;;;;5074351;28;20352;-74
2021/12/23 08:10:25;;;;;;;230.60;117.38;;;;;;;;;;5075872;28;20044;-74
2021/12/23 08:12:50;;;;;;;220.57;111.47;;;;;;;;;;5074012;28;20087;-73
2021/12/23 08:15:16;;;;;;;225.68;114.80;;;;;;;;;;5075119;28;20036;-73
2021/12/23 08:17:41;;;;;;;225.07;115.53;;;;;;;;;;5074924;28;20086;-74
2021/12/23 08:20:07;;;;;;;231.70;116.40;;;;;;;;;;5075407;28;20036;-73
2021/12/23 08:22:34;;;;;;;231.27;117.90;;;;;;;;;;5073825;28;20033;-74
2021/12/23 08:28:34;;;;;;;231.25;117.85;;;;;;;;;;5075457;28;20529;-74
2021/12/23 08:37:58;;;;;;;206.45;107.45;;;;;;;;;;5075003;28;20461;-73
2021/12/23 08:43:58;;;;;;;190.88;98.63;;;;;;;;;;5075158;28;20036;-73
2021/12/23 08:49:28;;;;;;;130.80;66.72;;;;;;;;;;5074433;28;20368;-74
2021/12/23 08:51:53;;;;;;;137.35;69.45;;;;;;;;;;5074457;28;20039;-73
2021/12/23 08:54:20;;;;;;;161.98;83.25;;;;;;;;;;5074445;28;20135;-71
2021/12/23 08:56:46;;;;;;;167.18;81.97;;;;;;;;;;5074274;28;20492;-74
2021/12/23 08:59:12;;;;;;;170.43;86.78;;;;;;;;;;5074248;28;20376;-73
2021/12/23 09:01:39;;;;;;;178.98;84.88;;;;;;;;;;5074367;28;20059;-74
2021/12/23 09:04:05;;;;;;;197.50;97.07;;;;;;;;;;5074167;28;20067;-74
2021/12/23 09:06:30;;;;;;;237.05;105.95;;;;;;;;;;5072705;28;20467;-74
2021/12/23 09:08:57;;;;;;;215.00;96.43;;;;;;;;;;5073816;28;20053;-73
2021/12/23 09:11:23;;;;;;;174.80;80.47;;;;;;;;;;5073964;28;20147;-73
2021/12/23 09:17:23;;;;;;;100.65;49.40;;;;;;;;;;5074238;28;20497;-74
2021/12/23 09:23:24;;;;;;;73.60;37.90;;;;;;;;;;5074149;28;20518;-74
2021/12/23 09:40:17;;;;;;;102.30;53.50;;;;;;;;;;5074267;28;20134;-73
2021/12/23 09:46:22;;;;;;;72.63;39.35;;;;;;;;;;5074125;28;20104;-72
2021/12/23 09:52:23;;;;;;;62.75;35.78;;;;;;;;;;5073987;28;20035;-72
2021/12/23 09:58:23;;;;;;;71.68;36.60;;;;;;;;;;5073624;28;20039;-72
2021/12/23 10:04:24;;;;;;;63.58;32.55;;;;;;;;;;5073867;28;20027;-72
2021/12/23 10:10:32;;;;;;;66.28;33.55;;;;;;;;;;5073837;28;20155;-72
2021/12/23 10:41:07;;;;;;;;;;;;;;;;;;5074041;28;20059;-73
2021/12/23 10:58:03;;;;;;;33.25;20.73;;;;;;;;;;5031144;28;20045;-72
2021/12/23 11:46:43;;;;;;;23.00;14.32;;;;;;;;;;5076314;28;20184;-72
2021/12/23 11:57:06;;;;;;;24.13;15.25;;;;;;;;;;5073918;28;20039;-72
2021/12/23 12:03:06;;;;;;;78.00;39.28;;;;;;;;;;5073868;28;20456;-71
2021/12/23 12:13:01;;;;;;;91.82;53.95;;;;;;;;;;5073562;28;20425;-72
2021/12/23 12:19:03;;;;;;;113.10;67.25;;;;;;;;;;5073383;28;20031;-73
2021/12/23 12:25:03;;;;;;;28.40;19.48;;;;;;;;;;5075550;28;20115;-72
2021/12/23 12:31:10;;;;;;;61.80;36.45;;;;;;;;;;5075405;28;20141;-72
2021/12/23 12:55:43;;;;;;;94.47;53.22;;;;;;;;;;5074671;28;20169;-74
2021/12/23 13:01:48;;;;;;;32.13;20.90;;;;;;;;;;5074830;28;20020;-73
2021/12/23 13:07:49;;;;;;;46.10;29.33;;;;;;;;;;5074715;28;20057;-73
2021/12/23 13:14:00;;;;;;;46.63;29.05;;;;;;;;;;5074601;28;20039;-74
2021/12/23 13:24:21;;;;;;;53.33;29.70;;;;;;;;;;5071778;28;20063;-73
2021/12/23 13:30:22;;;;;;;40.30;24.75;;;;;;;;;;5072511;28;20369;-73
2021/12/23 13:40:04;;;;;;;39.25;23.35;;;;;;;;;;5072193;28;20398;-73
2021/12/23 13:46:05;;;;;;;37.22;23.88;;;;;;;;;;5072069;28;20062;-73
2021/12/23 14:03:12;;;;;;;53.75;31.17;;;;;;;;;;5073923;28;20107;-72
2021/12/23 14:24:20;;;;;;;49.45;29.83;;;;;;;;;;5071827;28;20048;-71
2021/12/23 14:44:37;;;;;;;61.15;32.65;;;;;;;;;;5055333;28;20072;-76
2021/12/23 14:50:25;;;;;;;98.30;58.28;;;;;;;;;;5095717;28;20031;-72
2021/12/23 18:45:35;;;;;;;56.13;29.42;;;;;;;;;;5090243;28;20019;-73
2021/12/23 18:48:01;;;;;;;52.30;29.17;;;;;;;;;;5111784;28;20039;-74
2021/12/23 18:50:30;;;;;;;53.88;29.80;;;;;;;;;;5113248;28;20488;-73
2021/12/23 18:52:56;;;;;;;55.30;30.48;;;;;;;;;;5113298;28;20040;-73
2021/12/23 18:55:23;;;;;;;54.33;29.58;;;;;;;;;;5113380;28;20031;-73
2021/12/23 18:57:48;;;;;;;55.10;31.60;;;;;;;;;;5113137;28;20078;-73
2021/12/23 19:00:21;;;;;;;56.53;33.08;;;;;;;;;;5113162;28;20047;-73
2021/12/23 19:03:06;;;;;;;94.03;47.47;;;;;;;;;;5113198;28;20032;-73
2021/12/23 19:05:35;;;;;;;123.70;60.03;;;;;;;;;;5113342;28;20489;-73
2021/12/23 19:08:01;;;;;;;94.93;47.80;;;;;;;;;;5113144;28;20377;-73
2021/12/23 19:10:28;;;;;;;88.35;46.45;;;;;;;;;;5113207;28;20035;-73
2021/12/23 19:12:53;;;;;;;95.68;51.88;;;;;;;;;;5113083;28;20040;-73
2021/12/23 19:15:18;;;;;;;121.85;67.45;;;;;;;;;;5113037;28;20058;-73
2021/12/23 19:17:44;;;;;;;114.90;62.13;;;;;;;;;;5112939;28;20143;-73
2021/12/23 19:20:10;;;;;;;85.82;46.65;;;;;;;;;;5112991;28;20389;-73
2021/12/23 19:22:37;;;;;;;61.10;34.63;;;;;;;;;;5116265;28;20027;-73
2021/12/23 19:25:03;;;;;;;62.15;33.50;;;;;;;;;;5116618;28;20160;-73
2021/12/23 19:27:29;;;;;;;53.20;29.50;;;;;;;;;;5116478;28;20504;-73
2021/12/23 19:29:54;;;;;;;52.15;28.95;;;;;;;;;;5116455;28;20028;-73
2021/12/23 19:32:20;;;;;;;52.05;28.50;;;;;;;;;;5116523;28;20043;-73
2021/12/23 19:34:46;;;;;;;56.28;30.73;;;;;;;;;;5116627;28;20133;-73
2021/12/23 19:37:12;;;;;;;56.90;32.67;;;;;;;;;;5116334;28;20046;-73
2021/12/23 19:39:37;;;;;;;63.70;35.13;;;;;;;;;;5116309;28;20028;-73
2021/12/23 19:42:03;;;;;;;67.72;35.38;;;;;;;;;;5116338;28;20486;-73
2021/12/23 19:44:29;;;;;;;64.95;34.90;;;;;;;;;;5116347;28;20023;-73
2021/12/23 19:46:54;;;;;;;59.60;32.78;;;;;;;;;;5115542;28;20083;-72
2021/12/23 19:49:20;;;;;;;47.30;26.25;;;;;;;;;;5116211;28;20047;-73
2021/12/23 19:51:51;;;;;;;42.28;24.80;;;;;;;;;;5116160;28;20057;-72
2021/12/23 19:54:18;;;;;;;45.30;25.65;;;;;;;;;;5116129;28;20082;-72
2021/12/23 19:56:43;;;;;;;51.15;28.60;;;;;;;;;;5116022;28;20023;-72
2021/12/23 19:59:09;;;;;;;69.07;39.92;;;;;;;;;;5116006;28;20032;-72
2021/12/23 20:01:35;;;;;;;134.45;67.60;;;;;;;;;;5097760;28;20019;-72
2021/12/23 20:04:02;;;;;;;80.43;43.25;;;;;;;;;;5115828;28;20118;-72
2021/12/23 20:06:27;;;;;;;79.85;40.35;;;;;;;;;;5115966;28;20466;-72
2021/12/23 20:08:53;;;;;;;63.40;32.55;;;;;;;;;;5115776;28;20042;-72
2021/12/23 20:11:18;;;;;;;62.47;32.28;;;;;;;;;;5115758;28;20024;-72
2021/12/23 20:13:44;;;;;;;65.57;34.95;;;;;;;;;;5115593;28;20063;-72
2021/12/23 20:16:13;;;;;;;86.78;42.85;;;;;;;;;;5115643;28;20402;-72
2021/12/23 20:18:41;;;;;;;70.47;35.15;;;;;;;;;;5115588;28;20109;-72
2021/12/23 20:21:06;;;;;;;63.00;33.70;;;;;;;;;;5115682;28;20474;-72
2021/12/23 20:23:32;;;;;;;51.25;29.35;;;;;;;;;;5115522;28;20038;-72
2021/12/23 20:25:57;;;;;;;48.88;27.65;;;;;;;;;;5115423;28;20110;-73
2021/12/23 20:28:23;;;;;;;47.42;25.98;;;;;;;;;;5115452;28;20039;-72
2021/12/23 20:30:50;;;;;;;49.92;26.17;;;;;;;;;;5115522;28;20390;-72
2021/12/23 20:33:15;;;;;;;49.92;27.02;;;;;;;;;;5114856;28;20043;-72
2021/12/23 20:35:43;;;;;;;45.42;25.67;;;;;;;;;;5115316;28;20032;-72
2021/12/23 20:38:09;;;;;;;48.80;27.95;;;;;;;;;;5115037;28;20035;-72
2021/12/23 20:40:34;;;;;;;58.85;33.15;;;;;;;;;;5114555;28;20385;-72
2021/12/23 20:43:00;;;;;;;79.72;46.70;;;;;;;;;;5113973;28;20071;-73
2021/12/23 20:45:26;;;;;;;104.30;59.72;;;;;;;;;;5115071;28;20120;-73
2021/12/23 20:47:52;;;;;;;130.70;83.47;;;;;;;;;;5114757;28;20047;-73
2021/12/23 20:50:20;;;;;;;127.32;79.20;;;;;;;;;;5114901;28;20512;-74
2021/12/23 20:52:46;;;;;;;116.75;68.38;;;;;;;;;;5114931;28;20040;-73
2021/12/23 20:55:22;;;;;;;109.63;61.78;;;;;;;;;;5114954;28;20032;-73
2021/12/23 20:57:48;;;;;;;107.07;59.58;;;;;;;;;;5114732;28;20048;-73
2021/12/23 21:20:26;;;;;;;51.20;24.60;;;;;;;;;;5114968;28;20058;-73
2021/12/23 21:22:52;;;;;;;85.28;36.53;;;;;;;;;;5114299;28;20027;-73
2021/12/23 21:25:17;;;;;;;103.70;45.50;;;;;;;;;;5114215;28;20072;-74
2021/12/23 21:27:43;;;;;;;94.85;42.20;;;;;;;;;;5114164;28;20508;-73
2021/12/23 21:30:09;;;;;;;63.88;31.00;;;;;;;;;;5114182;28;20114;-72
2021/12/23 21:32:35;;;;;;;39.70;19.67;;;;;;;;;;5114142;28;20114;-71
2021/12/23 21:35:00;;;;;;;39.53;20.63;;;;;;;;;;5113713;28;20500;-71
2021/12/23 21:37:26;;;;;;;31.85;15.70;;;;;;;;;;5114147;28;20044;-72
2021/12/23 21:39:57;;;;;;;44.90;19.75;;;;;;;;;;5114093;28;20062;-72
2021/12/23 21:42:23;;;;;;;35.78;19.95;;;;;;;;;;5114095;28;20039;-72
2021/12/23 21:44:49;;;;;;;27.35;16.60;;;;;;;;;;5113290;28;20031;-72
2021/12/23 21:47:14;;;;;;;35.63;19.60;;;;;;;;;;5113522;28;20118;-72
2021/12/23 21:49:43;;;;;;;37.30;19.63;;;;;;;;;;5113905;28;20047;-72
2021/12/23 21:52:09;;;;;;;34.10;17.98;;;;;;;;;;5113961;28;20042;-72
2021/12/23 21:54:43;;;;;;;30.20;16.98;;;;;;;;;;5114021;28;20023;-72
2021/12/23 21:57:09;;;;;;;26.60;15.07;;;;;;;;;;5113791;28;20038;-72
2021/12/23 21:59:34;;;;;;;36.50;18.90;;;;;;;;;;5113706;28;20024;-72
2021/12/23 22:01:59;;;;;;;42.33;23.20;;;;;;;;;;5113782;28;20040;-72
2021/12/23 22:04:26;;;;;;;44.13;22.20;;;;;;;;;;5113752;28;20024;-72
2021/12/23 22:06:52;;;;;;;41.22;20.00;;;;;;;;;;5113706;28;20155;-72
2021/12/23 22:09:18;;;;;;;41.45;21.35;;;;;;;;;;5113762;28;20040;-72
2021/12/23 22:11:46;;;;;;;42.20;20.70;;;;;;;;;;5113707;28;20035;-72
2021/12/23 22:14:11;;;;;;;35.30;19.30;;;;;;;;;;5113643;28;20028;-72
2021/12/23 22:16:36;;;;;;;35.33;18.35;;;;;;;;;;5113449;28;20130;-72
2021/12/23 22:19:02;;;;;;;36.15;17.08;;;;;;;;;;5113550;28;20059;-72
2021/12/23 22:21:27;;;;;;;38.83;16.35;;;;;;;;;;5113720;28;20371;-70
2021/12/23 22:23:53;;;;;;;29.50;16.35;;;;;;;;;;5113580;28;20020;-71
2021/12/23 22:26:19;;;;;;;30.48;15.63;;;;;;;;;;5113497;28;20507;-71
2021/12/23 22:28:44;;;;;;;26.77;13.70;;;;;;;;;;5113320;28;20479;-72
2021/12/23 22:31:10;;;;;;;34.13;14.52;;;;;;;;;;5113444;28;20562;-72
2021/12/23 22:33:35;;;;;;;27.67;13.90;;;;;;;;;;5113406;28;20047;-71
2021/12/23 22:36:01;;;;;;;26.20;14.93;;;;;;;;;;5113373;28;20393;-72
2021/12/23 22:38:26;;;;;;;25.70;14.20;;;;;;;;;;5113362;28;20028;-71
2021/12/23 22:40:52;;;;;;;27.00;14.43;;;;;;;;;;5113378;28;20043;-71
2021/12/23 22:43:17;;;;;;;23.80;12.05;;;;;;;;;;5113390;28;20028;-71
2021/12/23 22:45:43;;;;;;;21.08;12.80;;;;;;;;;;5113153;28;20482;-71
2021/12/23 22:48:09;;;;;;;24.73;12.18;;;;;;;;;;5113003;28;20126;-72
2021/12/23 22:50:35;;;;;;;22.00;11.57;;;;;;;;;;5113283;28;20072;-72
2021/12/23 22:53:01;;;;;;;23.90;12.63;;;;;;;;;;5113423;28;20063;-72
2021/12/23 22:55:26;;;;;;;19.67;11.27;;;;;;;;;;5115037;28;20035;-71
2021/12/23 22:57:52;;;;;;;19.83;11.48;;;;;;;;;;5117015;28;20496;-71
2021/12/23 23:00:37;;;;;;;21.17;10.68;;;;;;;;;;5117055;28;20045;-71
2021/12/23 23:03:10;;;;;;;20.38;11.80;;;;;;;;;;5117295;28;20077;-71
2021/12/23 23:05:36;;;;;;;15.88;7.97;;;;;;;;;;5117171;28;20054;-71
2021/12/23 23:08:02;;;;;;;18.55;10.93;;;;;;;;;;5116899;28;20084;-72
2021/12/23 23:10:35;;;;;;;19.98;10.98;;;;;;;;;;5116959;28;20378;-71